Current Weather

City

City, United Kingdom (EGLC)

Report from: Saturday, June 22, 2024 9:20 AM BST
Current time: Saturday, June 22, 2024 10:02 AM BST

Nearby weather – Weather history – Daily summaries
Weather forecast

Present weatherHaze
Temperature16.0°C (60.8°F)
Dew point14.0°C (57.2°F)
Winds 7 kts (3.6 m/s, 8.1 mph) Southwest (230°)
Visibility3 mi. (4.9 km)
Clouds Ceiling: Broken clouds 1,200 ft. (366 m)
Broken clouds 2,000 ft. (610 m)
Overcast 3,900 ft. (1,189 m)
Altimeter29.88 in.Hg (1012 mB)
Relative humidity88 %
Density altitude382 ft. (116 m)
Remarks Fully automated report
Flight conditions Marginal Visual Meteorological Conditions
Raw dataEGLC 220820Z AUTO 23007KT 4900 HZ BKN012 BKN020 OVC039 16/14 Q1012
An error has occurred. This application may no longer respond until reloaded. Reload 🗙